Time;durP1;ratioP1;P1;durP2;ratioP2;P2;SDS_P1;SDS_P2;PMS_P1;PMS_P2;Temp;Humidity;BMP_temperature;BMP_pressure;BME280_temperature;BME280_humidity;BME280_pressure;Samples;Min_cycle;Max_cycle;Signal;HPM_P1;HPM_P2
2021/06/22 00:01:10;;;;;;;;;1.00;1.00;;;;;18.27;61.51;100630.84;5075035;27;45382;-68
2021/06/22 00:03:36;;;;;;;;;2.00;1.00;;;;;18.27;61.78;100630.84;5075432;27;45239;-68
2021/06/22 00:06:01;;;;;;;;;0.00;0.00;;;;;18.28;61.78;100640.47;5074865;28;45708;-69
2021/06/22 00:08:27;;;;;;;;;1.67;1.67;;;;;18.28;61.64;100643.97;5074295;28;45396;-68
2021/06/22 00:10:52;;;;;;;;;1.00;1.00;;;;;18.29;61.94;100640.31;5074087;28;45442;-69
2021/06/22 00:13:18;;;;;;;;;0.00;0.00;;;;;18.27;61.99;100636.16;5073903;28;45589;-69
2021/06/22 00:15:44;;;;;;;;;0.67;0.00;;;;;18.25;61.67;100641.66;5073817;28;45795;-69
2021/06/22 00:18:10;;;;;;;;;0.67;0.67;;;;;18.24;61.85;100645.31;5075385;27;45437;-69
2021/06/22 00:20:35;;;;;;;;;0.33;0.00;;;;;18.26;61.91;100656.59;5075268;27;45557;-68
2021/06/22 00:23:01;;;;;;;;;0.00;0.00;;;;;18.26;62.08;100650.44;5074336;27;45426;-69
2021/06/22 00:25:26;;;;;;;;;0.33;0.33;;;;;18.30;62.30;100654.44;5056898;28;46565;-71
2021/06/22 00:27:52;;;;;;;;;1.00;1.00;;;;;18.29;62.32;100650.97;5073817;28;45524;-70
2021/06/22 00:30:18;;;;;;;;;1.67;1.00;;;;;18.30;62.46;100641.13;5073732;27;45429;-69
2021/06/22 00:32:43;;;;;;;;;1.00;1.00;;;;;18.30;62.30;100639.31;5055510;28;45529;-70
2021/06/22 00:35:09;;;;;;;;;2.00;1.00;;;;;18.34;62.39;100642.47;5072946;28;46192;-70
2021/06/22 00:37:34;;;;;;;;;0.33;0.33;;;;;18.37;62.05;100641.31;5074864;28;45451;-71
2021/06/22 00:40:00;;;;;;;;;0.00;0.00;;;;;18.37;61.97;100643.97;5075065;27;45418;-71
2021/06/22 00:42:25;;;;;;;;;3.33;1.00;;;;;18.37;62.06;100638.63;5073568;28;45502;-71
2021/06/22 00:44:57;;;;;;;;;0.67;0.67;;;;;18.36;62.14;100635.16;5073296;28;46351;-71
2021/06/22 00:47:22;;;;;;;;;0.00;0.00;;;;;18.38;61.99;100637.66;5073576;27;45421;-69
2021/06/22 00:49:49;;;;;;;;;0.00;0.00;;;;;18.40;62.01;100643.66;5074318;28;45373;-70
2021/06/22 00:52:15;;;;;;;;;2.00;1.00;;;;;18.41;61.76;100639.97;5075006;27;45307;-69
2021/06/22 00:54:40;;;;;;;;;0.33;0.33;;;;;18.39;62.03;100636.66;5075322;27;45479;-69
2021/06/22 00:57:08;;;;;;;;;2.00;1.00;;;;;18.38;62.29;100638.47;5076534;27;45233;-69
2021/06/22 00:59:34;;;;;;;;;2.00;0.00;;;;;18.33;62.33;100642.63;5077219;27;45412;-69
2021/06/22 01:02:01;;;;;;;;;2.67;1.00;;;;;18.34;62.17;100655.75;5076923;27;45510;-68
2021/06/22 01:04:27;;;;;;;;;1.33;1.00;;;;;18.34;62.62;100660.25;5076652;27;46133;-70
2021/06/22 01:06:56;;;;;;;;;0.67;0.67;;;;;18.35;62.28;100664.59;5076486;27;45444;-68
2021/06/22 01:09:22;;;;;;;;;2.67;1.00;;;;;18.36;62.48;100666.22;5076879;27;45397;-69
2021/06/22 01:11:48;;;;;;;;;1.67;1.67;;;;;18.37;62.57;100654.59;5077879;27;45394;-69
2021/06/22 01:14:13;;;;;;;;;2.33;1.33;;;;;18.39;62.48;100658.75;5077951;27;45963;-69
2021/06/22 01:16:38;;;;;;;;;1.00;1.00;;;;;18.38;62.25;100653.59;5076696;28;45504;-67
2021/06/22 01:19:05;;;;;;;;;1.67;1.67;;;;;18.37;62.49;100651.94;5059330;28;45402;-67
2021/06/22 01:21:32;;;;;;;;;3.00;1.00;;;;;18.35;62.46;100649.44;5077746;28;45491;-66
2021/06/22 01:24:13;;;;;;;;;0.00;0.00;;;;;18.35;62.68;100638.00;5077738;27;45920;-67
2021/06/22 01:26:51;;;;;;;;;1.00;1.00;;;;;18.35;62.48;100640.66;5076533;28;45474;-66
2021/06/22 01:29:17;;;;;;;;;3.00;1.00;;;;;18.36;62.80;100636.97;5076759;27;45521;-66
2021/06/22 01:31:42;;;;;;;;;1.00;1.00;;;;;18.33;62.70;100629.34;5084528;27;45535;-65
2021/06/22 01:34:08;;;;;;;;;1.33;1.00;;;;;18.29;62.73;100624.38;5096039;27;46240;-66
2021/06/22 01:36:35;;;;;;;;;2.00;1.00;;;;;18.27;62.91;100621.03;5098369;27;45397;-65
2021/06/22 01:39:01;;;;;;;;;3.00;1.00;;;;;18.24;62.93;100621.38;5098008;27;45443;-66
2021/06/22 01:41:27;;;;;;;;;4.00;3.00;;;;;18.18;63.14;100619.38;5077846;27;45267;-62
2021/06/22 01:43:52;;;;;;;;;2.33;2.33;;;;;18.19;63.11;100618.38;5076571;27;45374;-62
2021/06/22 01:46:18;;;;;;;;;3.67;3.00;;;;;18.18;63.50;100623.88;5077032;27;45428;-62
2021/06/22 01:48:44;;;;;;;;;3.00;3.00;;;;;18.17;63.25;100620.38;5058894;28;45409;-62
2021/06/22 01:51:09;;;;;;;;;4.33;1.67;;;;;18.17;63.15;100624.88;5077133;27;45508;-62
2021/06/22 01:53:35;;;;;;;;;4.00;2.00;;;;;18.13;63.45;100617.22;5077004;27;46227;-63
2021/06/22 01:56:00;;;;;;;;;3.33;3.00;;;;;18.12;63.43;100617.38;5077144;27;45429;-63
2021/06/22 01:58:26;;;;;;;;;3.00;2.00;;;;;18.10;63.52;100609.56;5077238;28;45356;-62
2021/06/22 02:00:53;;;;;;;;;2.67;2.67;;;;;18.11;63.65;100613.06;5075660;28;45581;-63
2021/06/22 02:03:20;;;;;;;;;3.00;2.00;;;;;18.11;63.66;100621.88;5076655;27;46187;-63
2021/06/22 02:05:46;;;;;;;;;2.33;2.33;;;;;18.12;63.77;100622.69;5077013;27;45320;-63
2021/06/22 02:08:11;;;;;;;;;0.33;0.33;;;;;18.15;63.66;100633.00;5076892;27;46215;-62
2021/06/22 02:10:37;;;;;;;;;1.00;1.00;;;;;18.13;63.49;100627.84;5077029;28;45369;-62
2021/06/22 02:13:03;;;;;;;;;1.67;1.67;;;;;18.16;63.67;100632.00;5075281;27;46124;-65
2021/06/22 02:15:28;;;;;;;;;2.00;1.67;;;;;18.20;63.69;100630.69;5076858;27;45587;-63
2021/06/22 02:17:54;;;;;;;;;1.00;1.00;;;;;18.18;63.73;100624.69;5076825;27;45382;-61
2021/06/22 02:20:19;;;;;;;;;5.00;2.67;;;;;18.17;63.73;100632.84;5074805;27;45416;-60
2021/06/22 02:22:45;;;;;;;;;1.00;1.00;;;;;18.13;63.80;100627.84;5076385;28;46292;-60
2021/06/22 02:25:10;;;;;;;;;1.67;1.67;;;;;18.15;63.92;100625.03;5075272;28;45577;-62
2021/06/22 02:27:36;;;;;;;;;2.33;1.00;;;;;18.17;63.81;100630.19;5076771;28;45484;-61
2021/06/22 02:30:06;;;;;;;;;15.67;11.67;;;;;18.17;64.01;100625.69;5076047;27;45750;-62
2021/06/22 02:32:31;;;;;;;;;11.00;8.67;;;;;18.20;64.01;100625.38;5074740;27;46190;-64
2021/06/22 02:34:57;;;;;;;;;2.00;2.00;;;;;18.22;64.06;100622.53;5076337;28;45878;-64
2021/06/22 02:37:22;;;;;;;;;43.00;34.33;;;;;18.22;63.61;100622.53;5076163;27;45737;-63
2021/06/22 02:39:48;;;;;;;;;24.00;21.33;;;;;18.25;64.17;100628.38;5075494;28;45443;-62
2021/06/22 02:42:14;;;;;;;;;4.00;2.33;;;;;18.27;64.29;100631.66;5076114;27;46218;-63
2021/06/22 02:44:40;;;;;;;;;3.33;2.00;;;;;18.25;64.07;100625.72;5074564;27;45479;-63
2021/06/22 02:47:05;;;;;;;;;3.33;2.67;;;;;18.25;64.03;100636.34;5076252;27;45377;-63
2021/06/22 02:49:31;;;;;;;;;2.33;2.33;;;;;18.24;64.17;100626.69;5076485;27;45374;-63
2021/06/22 02:51:57;;;;;;;;;3.33;3.33;;;;;18.24;64.29;100637.34;5076535;27;45415;-64
2021/06/22 02:54:23;;;;;;;;;3.67;3.67;;;;;18.26;64.29;100637.16;5075323;27;45421;-63
2021/06/22 02:56:48;;;;;;;;;2.67;2.33;;;;;18.24;64.46;100639.13;5075093;27;45417;-63
2021/06/22 02:59:14;;;;;;;;;5.00;4.00;;;;;18.23;64.40;100646.31;5076218;27;45388;-64
2021/06/22 03:01:39;;;;;;;;;3.00;3.00;;;;;18.22;64.64;100647.28;5074550;28;46377;-63
2021/06/22 03:04:04;;;;;;;;;2.67;2.67;;;;;18.23;64.72;100648.97;5076230;27;45424;-63
2021/06/22 03:06:30;;;;;;;;;4.00;4.00;;;;;18.25;64.65;100649.63;5075023;28;45747;-63
2021/06/22 03:08:55;;;;;;;;;3.67;3.67;;;;;18.28;64.74;100638.66;5075011;27;45547;-64
2021/06/22 03:11:21;;;;;;;;;1.00;1.00;;;;;18.28;64.40;100646.63;5075528;27;45550;-64
2021/06/22 03:13:46;;;;;;;;;4.67;4.67;;;;;18.27;64.66;100646.81;5075075;27;45984;-64
2021/06/22 03:16:11;;;;;;;;;5.00;4.00;;;;;18.29;64.58;100639.47;5075506;27;45472;-64
2021/06/22 03:18:37;;;;;;;;;3.67;3.00;;;;;18.25;64.74;100641.66;5075326;27;45334;-63
2021/06/22 03:21:03;;;;;;;;;5.00;5.00;;;;;18.23;64.87;100635.66;5057755;28;46314;-63
2021/06/22 03:23:28;;;;;;;;;7.67;5.33;;;;;18.20;64.83;100624.53;5075456;27;45397;-62
2021/06/22 03:25:53;;;;;;;;;4.00;4.00;;;;;18.16;64.86;100628.53;5076091;27;45491;-63
2021/06/22 03:28:19;;;;;;;;;1.33;1.00;;;;;18.10;65.14;100632.69;5074630;27;45504;-63
2021/06/22 03:30:46;;;;;;;;;5.33;5.00;;;;;18.02;65.41;100633.50;5074526;27;48001;-64
2021/06/22 03:33:11;;;;;;;;;4.33;4.33;;;;;17.98;65.53;100637.47;5074413;27;45487;-64
2021/06/22 03:35:37;;;;;;;;;4.33;4.00;;;;;17.94;66.06;100637.00;5074394;28;45547;-64
2021/06/22 03:38:03;;;;;;;;;7.67;5.00;;;;;17.93;66.19;100630.00;5075694;28;45343;-64
2021/06/22 03:40:28;;;;;;;;;12.67;8.67;;;;;17.96;66.37;100629.66;5074575;27;45555;-63
2021/06/22 03:42:54;;;;;;;;;7.00;5.33;;;;;17.96;66.32;100632.31;5075356;27;45400;-63
2021/06/22 03:45:19;;;;;;;;;63.75;49.25;;;;;17.96;66.40;100634.97;5073812;28;45449;-64
2021/06/22 03:47:44;;;;;;;;;7.00;5.67;;;;;18.00;66.65;100629.34;5074459;28;45570;-63
2021/06/22 03:50:10;;;;;;;;;7.00;4.00;;;;;17.98;66.70;100632.16;5057146;28;46539;-64
2021/06/22 03:52:36;;;;;;;;;13.33;13.00;;;;;17.97;66.80;100647.28;5075363;27;45950;-65
2021/06/22 03:55:02;;;;;;;;;9.33;8.00;;;;;17.98;67.02;100648.94;5075763;27;45318;-63
2021/06/22 03:57:27;;;;;;;;;6.67;5.67;;;;;17.98;67.27;100653.41;5074102;27;45613;-64
2021/06/22 03:59:52;;;;;;;;;5.67;5.67;;;;;18.02;67.22;100649.44;5075190;27;46177;-64
2021/06/22 04:02:18;;;;;;;;;9.00;5.33;;;;;18.06;67.12;100660.56;5073857;27;45391;-65
2021/06/22 04:04:44;;;;;;;;;4.67;4.67;;;;;18.08;67.07;100663.91;5075492;27;45409;-65
2021/06/22 04:07:09;;;;;;;;;5.00;4.67;;;;;18.10;67.27;100668.06;5075320;27;45368;-64
2021/06/22 04:09:35;;;;;;;;;5.00;4.00;;;;;18.15;67.18;100670.22;5073343;27;45505;-64
2021/06/22 04:12:00;;;;;;;;;7.00;7.00;;;;;18.21;67.62;100677.53;5075124;27;45466;-64
2021/06/22 04:14:26;;;;;;;;;8.33;6.67;;;;;18.25;67.24;100675.38;5073586;28;45422;-64
2021/06/22 04:16:51;;;;;;;;;5.50;5.50;;;;;18.27;67.05;100684.84;5073871;28;45352;-66
2021/06/22 04:19:16;;;;;;;;;5.33;5.00;;;;;18.29;67.16;100687.34;5074800;27;47089;-64
2021/06/22 04:21:42;;;;;;;;;5.00;4.00;;;;;18.31;67.14;100685.34;5074655;27;45382;-64
2021/06/22 04:24:08;;;;;;;;;4.00;4.00;;;;;18.33;66.99;100682.53;5074096;27;45380;-65
2021/06/22 04:26:33;;;;;;;;;4.00;2.67;;;;;18.32;67.00;100687.03;5073222;28;45339;-64
2021/06/22 04:28:58;;;;;;;;;5.00;5.00;;;;;18.33;66.77;100683.34;5090915;27;45354;-64
2021/06/22 04:31:24;;;;;;;;;6.00;6.00;;;;;18.34;66.87;100684.19;5086841;27;45236;-64
2021/06/22 04:33:49;;;;;;;;;8.00;6.00;;;;;18.35;66.87;100677.88;5078633;27;45421;-64
2021/06/22 04:36:15;;;;;;;;;5.00;4.00;;;;;18.34;66.60;100679.69;5078691;28;45260;-64
2021/06/22 04:38:40;;;;;;;;;4.00;3.67;;;;;18.37;66.86;100689.16;5077122;27;46345;-65
2021/06/22 04:41:06;;;;;;;;;3.67;3.67;;;;;18.39;66.72;100692.50;5078235;27;45315;-65
2021/06/22 04:43:31;;;;;;;;;4.00;3.67;;;;;18.39;66.50;100687.19;5077571;27;45446;-64
2021/06/22 04:45:56;;;;;;;;;6.00;4.00;;;;;18.38;66.46;100685.50;5060841;28;45835;-65
2021/06/22 04:48:22;;;;;;;;;3.67;3.67;;;;;18.33;66.35;100690.50;5076926;27;46494;-65
2021/06/22 04:50:48;;;;;;;;;2.00;2.00;;;;;18.24;66.60;100690.50;5077981;27;45453;-64
2021/06/22 04:53:13;;;;;;;;;4.67;3.67;;;;;18.16;66.78;100682.50;5078272;27;45578;-64
2021/06/22 04:55:38;;;;;;;;;4.00;3.00;;;;;18.10;66.81;100691.97;5077685;27;45408;-64
2021/06/22 04:58:04;;;;;;;;;3.00;3.00;;;;;18.13;67.08;100688.16;5077783;28;46476;-64
2021/06/22 05:00:29;;;;;;;;;4.00;4.00;;;;;18.14;66.97;100700.47;5076641;27;45988;-64
2021/06/22 05:02:55;;;;;;;;;4.67;4.00;;;;;18.16;67.16;100694.97;5096622;27;45472;-64
2021/06/22 05:05:20;;;;;;;;;5.33;3.00;;;;;18.20;67.18;100694.50;5097038;27;45493;-64
2021/06/22 05:07:46;;;;;;;;;6.00;4.00;;;;;18.23;67.28;100696.81;5096358;27;47298;-64
2021/06/22 05:10:12;;;;;;;;;6.33;4.00;;;;;18.23;67.26;100702.13;5086184;27;45850;-64
2021/06/22 05:12:39;;;;;;;;;5.33;4.00;;;;;18.24;67.98;100695.81;5076051;27;45461;-64
2021/06/22 05:15:06;;;;;;;;;5.00;5.00;;;;;18.21;67.71;100692.66;5077855;27;45226;-64
2021/06/22 05:17:31;;;;;;;;;7.33;5.33;;;;;18.21;67.91;100703.28;5076844;27;45498;-63
2021/06/22 05:19:56;;;;;;;;;7.67;7.00;;;;;18.12;68.68;100700.63;5077159;27;45473;-65
2021/06/22 05:22:22;;;;;;;;;10.67;7.00;;;;;18.07;68.70;100696.78;5076376;27;45213;-65
2021/06/22 05:24:47;;;;;;;;;8.50;7.00;;;;;18.01;69.12;100700.09;5077186;27;45556;-65
2021/06/22 05:27:13;;;;;;;;;11.67;10.00;;;;;17.96;69.45;100697.94;5076736;28;45705;-61
2021/06/22 05:29:39;;;;;;;;;9.00;8.00;;;;;17.91;69.45;100695.72;5076975;28;45334;-61
2021/06/22 05:32:05;;;;;;;;;11.33;10.00;;;;;17.97;69.92;100710.25;5077645;27;45590;-60
2021/06/22 05:34:31;;;;;;;;;11.00;10.67;;;;;17.97;70.01;100708.41;5074803;28;45558;-60
2021/06/22 05:36:56;;;;;;;;;10.33;8.00;;;;;18.00;69.81;100715.22;5076842;27;45419;-61
2021/06/22 05:39:22;;;;;;;;;8.00;8.00;;;;;18.03;69.85;100703.44;5076338;27;45316;-61
2021/06/22 05:41:47;;;;;;;;;9.00;9.00;;;;;18.07;69.88;100712.72;5076267;27;45483;-60
2021/06/22 05:44:13;;;;;;;;;8.33;8.00;;;;;18.11;69.93;100706.09;5076837;28;45485;-59
2021/06/22 05:46:38;;;;;;;;;9.67;8.33;;;;;18.14;69.89;100708.44;5076574;28;45698;-62
2021/06/22 05:49:03;;;;;;;;;9.00;8.00;;;;;18.15;69.96;100702.13;5077201;27;45401;-60
2021/06/22 05:51:29;;;;;;;;;10.67;10.67;;;;;18.25;69.85;100721.41;5076915;27;45228;-60
2021/06/22 05:53:54;;;;;;;;;12.67;9.67;;;;;18.31;69.79;100722.56;5076129;27;45239;-61
2021/06/22 05:56:21;;;;;;;;;11.00;9.00;;;;;18.34;69.58;100722.22;5076487;27;46722;-61
2021/06/22 05:58:46;;;;;;;;;9.67;8.67;;;;;18.36;69.51;100720.25;5075507;27;45377;-61
2021/06/22 06:01:11;;;;;;;;;11.00;10.00;;;;;18.38;69.63;100725.41;5076982;27;45391;-62
2021/06/22 06:03:37;;;;;;;;;12.33;10.00;;;;;18.36;69.65;100722.06;5076574;27;45639;-61
2021/06/22 06:06:03;;;;;;;;;13.33;9.00;;;;;18.37;69.37;100726.41;5076297;27;45287;-63
2021/06/22 06:08:29;;;;;;;;;10.00;10.00;;;;;18.40;69.72;100736.72;5076100;27;45310;-61
2021/06/22 06:10:55;;;;;;;;;15.00;11.67;;;;;18.42;69.51;100738.22;5076021;27;45522;-61
2021/06/22 06:13:28;;;;;;;;;11.67;10.33;;;;;18.46;69.50;100741.34;5075973;27;45327;-61
2021/06/22 06:15:53;;;;;;;;;10.00;10.00;;;;;18.47;69.66;100738.56;5074212;27;45374;-60
2021/06/22 06:18:18;;;;;;;;;10.33;8.67;;;;;18.50;69.56;100741.84;5075692;28;45427;-61
2021/06/22 06:20:44;;;;;;;;;12.00;10.67;;;;;18.47;69.71;100748.34;5080640;27;45740;-59
2021/06/22 06:23:10;;;;;;;;;14.67;14.00;;;;;18.45;69.76;100750.34;5093137;27;45414;-60
2021/06/22 06:25:35;;;;;;;;;11.00;10.33;;;;;18.43;69.33;100752.34;5083193;27;45398;-61
2021/06/22 06:28:05;;;;;;;;;15.33;13.33;;;;;18.41;69.75;100749.84;5075406;27;45630;-60
2021/06/22 06:30:31;;;;;;;;;13.67;13.00;;;;;18.38;69.81;100744.00;5076141;27;45266;-60
2021/06/22 06:32:57;;;;;;;;;14.00;11.00;;;;;18.40;69.71;100748.19;5075426;27;45599;-61
2021/06/22 06:35:22;;;;;;;;;11.00;11.00;;;;;18.42;69.90;100756.84;5075612;27;46396;-61
2021/06/22 06:37:48;;;;;;;;;11.00;11.00;;;;;18.45;69.85;100755.66;5079717;27;45407;-59
2021/06/22 06:40:14;;;;;;;;;14.00;12.67;;;;;18.48;69.91;100750.00;5083376;27;45396;-60
2021/06/22 06:42:39;;;;;;;;;9.67;9.00;;;;;18.49;69.81;100757.00;5074448;28;45443;-61
2021/06/22 06:45:06;;;;;;;;;14.00;11.33;;;;;18.51;69.91;100757.66;5075292;27;45436;-59
2021/06/22 06:47:31;;;;;;;;;13.00;9.33;;;;;18.57;69.98;100762.31;5075767;27;45461;-59
2021/06/22 06:49:56;;;;;;;;;12.67;11.00;;;;;18.63;69.81;100756.34;5075389;27;45882;-60
2021/06/22 06:52:22;;;;;;;;;13.67;13.00;;;;;18.70;69.84;100759.16;5074997;27;45594;-61
2021/06/22 06:54:47;;;;;;;;;10.00;10.00;;;;;18.76;69.48;100768.28;5074753;27;47077;-60
2021/06/22 06:57:13;;;;;;;;;13.67;12.33;;;;;18.79;69.56;100765.31;5075165;27;45459;-60
2021/06/22 06:59:38;;;;;;;;;15.33;14.33;;;;;18.80;69.74;100770.47;5075896;27;45381;-60
2021/06/22 07:02:03;;;;;;;;;12.00;12.00;;;;;18.85;69.42;100780.63;5074432;27;46386;-61
2021/06/22 07:04:29;;;;;;;;;14.00;13.67;;;;;18.85;69.54;100777.97;5075279;27;46146;-61
2021/06/22 07:06:55;;;;;;;;;14.33;12.67;;;;;18.81;69.48;100771.28;5075279;27;45372;-62
2021/06/22 07:09:21;;;;;;;;;16.67;13.67;;;;;18.79;69.26;100776.78;5076080;28;45449;-60
2021/06/22 07:11:46;;;;;;;;;15.33;13.33;;;;;18.77;69.56;100783.25;5075625;27;45560;-59
2021/06/22 07:14:14;;;;;;;;;19.67;15.00;;;;;18.72;69.59;100778.47;5075662;27;46096;-60
2021/06/22 07:16:40;;;;;;;;;16.33;15.67;;;;;18.73;69.70;100784.59;5076236;27;45705;-60
2021/06/22 07:19:06;;;;;;;;;14.00;13.00;;;;;18.71;69.98;100789.25;5075647;28;45445;-60
2021/06/22 07:21:31;;;;;;;;;15.00;13.00;;;;;18.70;69.77;100783.09;5074956;27;45561;-60
2021/06/22 07:23:57;;;;;;;;;17.00;15.00;;;;;18.73;69.86;100789.91;5075545;27;46232;-60
2021/06/22 07:26:22;;;;;;;;;16.00;13.00;;;;;18.73;69.76;100784.59;5074533;28;45478;-60
2021/06/22 07:28:48;;;;;;;;;13.33;11.33;;;;;18.75;69.92;100779.97;5076398;27;45748;-61
2021/06/22 07:31:13;;;;;;;;;20.00;17.00;;;;;18.80;69.95;100782.94;5074878;27;45568;-60
2021/06/22 07:33:39;;;;;;;;;16.33;14.00;;;;;18.84;69.83;100781.63;5075586;27;46576;-61
2021/06/22 07:36:06;;;;;;;;;18.00;15.00;;;;;18.84;69.48;100781.63;5075076;28;45385;-61
2021/06/22 07:38:32;;;;;;;;;17.00;14.00;;;;;18.84;69.66;100781.63;5075363;27;45379;-60
2021/06/22 07:40:57;;;;;;;;;17.00;13.33;;;;;18.87;69.58;100777.78;5075117;27;45587;-61
2021/06/22 07:43:23;;;;;;;;;16.00;14.67;;;;;18.92;69.52;100771.00;5073266;28;46412;-60
2021/06/22 07:45:48;;;;;;;;;13.33;13.33;;;;;18.93;69.53;100774.50;5074854;27;45335;-60
2021/06/22 07:48:14;;;;;;;;;18.67;16.00;;;;;18.90;69.49;100775.66;5075297;27;45495;-62
2021/06/22 07:50:39;;;;;;;;;19.33;14.00;;;;;18.84;69.59;100776.28;5056899;28;45467;-60
2021/06/22 07:53:04;;;;;;;;;17.33;15.33;;;;;18.85;69.93;100771.78;5075388;27;45386;-60
2021/06/22 07:55:30;;;;;;;;;24.67;21.33;;;;;18.80;69.91;100777.63;5076130;28;45391;-61
2021/06/22 07:57:56;;;;;;;;;24.00;23.00;;;;;18.72;69.82;100788.25;5056934;28;45387;-60
2021/06/22 08:00:46;;;;;;;;;24.00;24.00;;;;;18.66;69.64;100796.91;5073635;28;45467;-61
2021/06/22 08:03:12;;;;;;;;;22.00;21.67;;;;;18.52;69.90;100785.09;5074759;27;45338;-61
2021/06/22 08:05:38;;;;;;;;;26.00;23.67;;;;;18.44;70.46;100796.56;5077935;27;45286;-61
2021/06/22 08:08:05;;;;;;;;;24.33;21.67;;;;;18.39;70.61;100797.03;5078213;27;45317;-61
2021/06/22 08:10:30;;;;;;;;;19.33;18.67;;;;;18.35;70.75;100802.84;5077267;27;45314;-61
2021/06/22 08:12:57;;;;;;;;;25.33;20.67;;;;;18.35;70.70;100805.53;5076801;27;46075;-62
2021/06/22 08:15:22;;;;;;;;;24.33;19.00;;;;;18.36;71.09;100809.81;5079049;27;45338;-61
2021/06/22 08:17:48;;;;;;;;;20.33;18.33;;;;;18.35;71.24;100794.88;5078700;27;45385;-61
2021/06/22 08:20:13;;;;;;;;;15.67;15.67;;;;;18.42;71.11;100804.69;5086727;27;45659;-61
2021/06/22 08:22:39;;;;;;;;;18.00;17.00;;;;;18.45;71.02;100811.53;5098089;27;47159;-62
2021/06/22 08:25:06;;;;;;;;;21.67;20.00;;;;;18.46;70.94;100810.50;5098668;27;45259;-61
2021/06/22 08:27:31;;;;;;;;;20.00;19.00;;;;;18.44;71.12;100807.19;5098718;27;45396;-61
2021/06/22 08:29:57;;;;;;;;;18.67;18.00;;;;;18.40;71.26;100817.31;5098665;27;45614;-61
2021/06/22 08:32:22;;;;;;;;;15.33;14.67;;;;;18.39;71.28;100817.50;5078244;27;46030;-61
2021/06/22 08:34:48;;;;;;;;;19.33;18.67;;;;;18.36;71.62;100823.97;5078097;27;45476;-62
2021/06/22 08:37:13;;;;;;;;;22.67;22.00;;;;;18.35;71.77;100809.00;5078056;27;45429;-61
2021/06/22 08:39:38;;;;;;;;;21.67;18.67;;;;;18.46;71.98;100819.34;5078233;28;45600;-62
2021/06/22 08:42:06;;;;;;;;;25.33;19.33;;;;;18.53;71.58;100822.16;5078166;27;45560;-62
2021/06/22 08:44:32;;;;;;;;;20.33;19.33;;;;;18.57;71.57;100820.00;5076693;28;45434;-61
2021/06/22 08:46:58;;;;;;;;;20.33;17.00;;;;;18.60;71.53;100817.88;5043297;27;45524;-61
2021/06/22 08:49:24;;;;;;;;;19.67;18.00;;;;;18.63;71.20;100816.69;5059635;28;45540;-62
2021/06/22 08:51:51;;;;;;;;;20.00;18.00;;;;;18.67;71.78;100817.19;5076750;28;46220;-61
2021/06/22 08:54:16;;;;;;;;;18.67;14.67;;;;;18.74;71.68;100818.19;5076229;28;45343;-61
2021/06/22 08:56:41;;;;;;;;;21.67;18.67;;;;;18.80;71.28;100821.03;5076422;27;45535;-60
2021/06/22 08:59:07;;;;;;;;;19.33;18.00;;;;;18.86;70.96;100816.84;5077896;27;45549;-60
2021/06/22 09:01:32;;;;;;;;;22.00;20.33;;;;;18.94;70.68;100816.91;5077770;27;46492;-61
2021/06/22 09:03:58;;;;;;;;;16.33;15.00;;;;;19.08;70.72;100814.56;5075925;28;45222;-62
2021/06/22 09:06:24;;;;;;;;;18.67;14.00;;;;;19.23;70.37;100815.53;5077986;27;45429;-62
2021/06/22 09:08:51;;;;;;;;;17.33;16.33;;;;;19.48;70.17;100820.81;5076723;27;45388;-62
2021/06/22 09:11:16;;;;;;;;;22.00;21.67;;;;;19.75;69.27;100816.91;5076969;27;45550;-61
2021/06/22 09:13:44;;;;;;;;;21.33;18.00;;;;;19.92;69.04;100816.88;5076633;27;45503;-61
2021/06/22 09:16:10;;;;;;;;;19.67;17.33;;;;;20.08;68.82;100811.50;5076506;27;45380;-62
2021/06/22 09:18:39;;;;;;;;;22.00;17.67;;;;;20.28;67.99;100814.53;5059398;28;45556;-60
2021/06/22 09:21:11;;;;;;;;;27.67;23.00;;;;;20.38;67.38;100832.16;5076975;27;45505;-61
2021/06/22 09:23:38;;;;;;;;;21.00;20.00;;;;;20.38;66.88;100821.47;5077178;27;45495;-62
2021/06/22 09:26:11;;;;;;;;;22.33;19.00;;;;;20.33;66.54;100823.84;5076459;28;45529;-62
2021/06/22 09:28:36;;;;;;;;;22.00;22.00;;;;;20.27;66.72;100830.72;5076091;27;45435;-62
2021/06/22 09:31:05;;;;;;;;;20.67;16.00;;;;;20.22;66.83;100825.91;5075591;27;46014;-62
2021/06/22 09:33:36;;;;;;;;;35.67;29.33;;;;;20.20;66.85;100830.59;5075487;27;45504;-63
2021/06/22 09:36:04;;;;;;;;;21.00;18.00;;;;;20.11;66.53;100829.78;5077134;27;45689;-62
2021/06/22 09:38:31;;;;;;;;;13.00;12.33;;;;;19.98;67.09;100828.69;5077154;27;45546;-62
2021/06/22 09:41:07;;;;;;;;;20.67;17.67;;;;;19.91;66.84;100831.22;5059133;28;45630;-63
2021/06/22 09:43:43;;;;;;;;;23.67;19.33;;;;;19.86;66.65;100837.09;5075691;28;45490;-63
2021/06/22 09:46:09;;;;;;;;;16.33;11.33;;;;;19.77;66.85;100830.06;5076791;27;45395;-61
2021/06/22 09:48:47;;;;;;;;;27.00;22.67;;;;;19.72;67.06;100832.41;5077118;27;45388;-61
2021/06/22 09:51:13;;;;;;;;;20.00;19.33;;;;;19.61;67.05;100837.09;5075992;28;46233;-62
2021/06/22 09:53:38;;;;;;;;;17.00;17.00;;;;;19.50;66.94;100831.31;5076768;27;45441;-61
2021/06/22 09:56:06;;;;;;;;;29.67;21.67;;;;;19.42;67.24;100838.31;5077088;27;45375;-61
2021/06/22 09:58:42;;;;;;;;;21.00;20.00;;;;;19.31;68.01;100835.19;5076345;27;45478;-61
2021/06/22 10:01:24;;;;;;;;;21.67;20.00;;;;;19.24;68.43;100841.19;5070389;27;45939;-61
2021/06/22 10:03:50;;;;;;;;;23.67;22.67;;;;;19.20;68.79;100833.69;5079438;27;45447;-62
2021/06/22 10:06:16;;;;;;;;;25.67;22.67;;;;;19.14;68.97;100837.88;5076530;28;45476;-61
2021/06/22 10:08:57;;;;;;;;;24.33;22.33;;;;;19.03;69.93;100851.50;5058310;28;45479;-60
2021/06/22 10:11:30;;;;;;;;;21.00;19.00;;;;;18.82;71.47;100847.47;5076113;27;46098;-61
2021/06/22 10:13:56;;;;;;;;;23.00;21.00;;;;;18.51;72.78;100860.56;5075399;27;45342;-60
2021/06/22 10:16:22;;;;;;;;;22.00;19.67;;;;;18.22;74.56;100865.28;5076518;27;45390;-61
2021/06/22 10:18:48;;;;;;;;;29.00;22.67;;;;;17.97;76.01;100859.88;5076687;27;45324;-61
2021/06/22 10:21:13;;;;;;;;;30.67;26.00;;;;;17.71;77.22;100864.34;5057972;28;46160;-61
2021/06/22 10:23:39;;;;;;;;;39.33;31.33;;;;;17.48;78.21;100859.59;5075181;27;45403;-63
2021/06/22 10:26:04;;;;;;;;;23.67;22.67;;;;;17.26;78.81;100859.09;5058859;28;45540;-60
2021/06/22 10:28:30;;;;;;;;;26.00;25.67;;;;;17.13;79.90;100861.31;5058468;28;45486;-61
2021/06/22 10:30:55;;;;;;;;;30.67;27.33;;;;;17.08;80.83;100860.94;5076256;27;46197;-61
2021/06/22 10:33:21;;;;;;;;;31.67;28.00;;;;;16.97;81.00;100862.84;5057460;28;45412;-62
2021/06/22 10:35:47;;;;;;;;;34.67;28.67;;;;;16.89;81.03;100865.41;5075387;27;45406;-61
2021/06/22 10:38:13;;;;;;;;;39.00;31.67;;;;;16.91;81.29;100874.06;5074771;28;45433;-62
2021/06/22 10:40:38;;;;;;;;;41.67;32.00;;;;;16.92;82.75;100878.38;5048973;28;46328;-62
2021/06/22 10:43:06;;;;;;;;;27.00;23.67;;;;;16.93;82.66;100887.16;5074627;28;45437;-61
2021/06/22 10:45:31;;;;;;;;;34.33;32.00;;;;;16.90;83.06;100888.31;5075234;27;45676;-62
2021/06/22 10:47:59;;;;;;;;;35.67;30.67;;;;;16.89;83.04;100897.25;5074651;28;45399;-63
2021/06/22 10:50:28;;;;;;;;;26.67;24.00;;;;;16.83;82.77;100888.06;5074086;27;47135;-62
2021/06/22 10:53:02;;;;;;;;;29.67;23.67;;;;;16.76;83.06;100897.63;5075397;28;45439;-61
2021/06/22 10:55:27;;;;;;;;;28.00;25.00;;;;;16.70;84.09;100907.97;5077895;27;45537;-61
2021/06/22 10:58:08;;;;;;;;;23.67;20.33;;;;;16.63;84.65;100921.84;5076075;27;45431;-62
2021/06/22 11:00:43;;;;;;;;;26.33;23.33;;;;;16.56;84.78;100926.06;5075749;27;46159;-62
2021/06/22 11:03:18;;;;;;;;;22.00;21.00;;;;;16.42;86.87;100913.31;5075963;27;45361;-63
2021/06/22 11:05:44;;;;;;;;;23.33;21.33;;;;;16.25;87.82;100944.91;5076210;28;45534;-60
2021/06/22 11:08:12;;;;;;;;;23.00;19.67;;;;;16.09;88.80;100940.22;5057906;28;45645;-62
2021/06/22 11:11:08;;;;;;;;;29.33;26.67;;;;;16.09;89.52;100948.19;5075444;27;46302;-62
2021/06/22 11:13:40;;;;;;;;;26.00;24.00;;;;;16.06;89.72;100947.63;5071558;27;45435;-62